TimeEDT,TemperatureF,Dew PointF,Humidity,Sea Level PressureIn,VisibilityMPH,Wind Direction,Wind SpeedMPH,Gust SpeedMPH,PrecipitationIn,Events,Conditions,WindDirDegrees,DateUTC
12:56 AM,61.0,50.0,67,30.01,-9999.0,SSW,5.8,-,N/A,,Unknown,210,2013-07-25 04:56:00
1:56 AM,60.1,51.1,72,30.00,-9999.0,SSW,5.8,-,N/A,,Unknown,200,2013-07-25 05:56:00
2:56 AM,61.0,53.1,75,29.99,-9999.0,SSW,8.1,-,N/A,,Unknown,200,2013-07-25 06:56:00
3:56 AM,61.0,53.1,75,29.99,-9999.0,SSW,6.9,-,N/A,,Unknown,210,2013-07-25 07:56:00
4:56 AM,60.1,53.1,78,29.98,-9999.0,SSW,8.1,-,N/A,,Unknown,200,2013-07-25 08:56:00
5:56 AM,60.1,54.0,80,29.99,-9999.0,SSW,8.1,-,N/A,,Unknown,200,2013-07-25 09:56:00
6:56 AM,60.1,54.0,80,29.98,-9999.0,SSW,8.1,-,N/A,,Unknown,210,2013-07-25 10:56:00
7:56 AM,63.0,55.0,75,29.99,-9999.0,SSW,9.2,-,N/A,,Unknown,200,2013-07-25 11:56:00
8:56 AM,63.0,55.0,75,30.00,-9999.0,SSW,6.9,-,N/A,,Unknown,200,2013-07-25 12:56:00
9:56 AM,70.0,55.9,61,30.00,-9999.0,SSW,9.2,-,N/A,,Unknown,200,2013-07-25 13:56:00
10:56 AM,73.0,54.0,51,29.99,-9999.0,Variable,4.6,-,N/A,,Unknown,0,2013-07-25 14:56:00
12:56 PM,78.1,54.0,43,29.97,-9999.0,SSW,9.2,16.1,N/A,,Unknown,200,2013-07-25 16:56:00
1:56 PM,78.1,54.0,43,29.96,-9999.0,SSW,11.5,17.3,N/A,,Unknown,210,2013-07-25 17:56:00
2:56 PM,79.0,57.0,47,29.94,-9999.0,SSW,10.4,18.4,N/A,,Unknown,200,2013-07-25 18:56:00
3:56 PM,75.0,57.9,55,29.94,-9999.0,South,11.5,20.7,N/A,,Unknown,170,2013-07-25 19:56:00
4:56 PM,73.9,57.0,55,29.93,-9999.0,South,12.7,18.4,N/A,,Unknown,170,2013-07-25 20:56:00
5:56 PM,72.0,57.0,59,29.92,-9999.0,South,11.5,20.7,N/A,,Unknown,180,2013-07-25 21:56:00
6:56 PM,69.1,57.0,65,29.91,-9999.0,South,8.1,21.9,0.01,,Unknown,190,2013-07-25 22:56:00
7:56 PM,64.0,59.0,84,29.94,-9999.0,SSW,10.4,-,0.08,,Unknown,200,2013-07-25 23:56:00
8:56 PM,63.0,59.0,87,29.93,-9999.0,South,11.5,19.6,0.13,,Unknown,180,2013-07-26 00:56:00
9:56 PM,63.0,59.0,87,29.91,-9999.0,South,12.7,26.5,0.03,,Unknown,190,2013-07-26 01:56:00
10:56 PM,62.1,57.0,84,29.91,-9999.0,South,10.4,16.1,0.01,,Unknown,170,2013-07-26 02:56:00
11:56 PM,62.1,59.0,90,29.91,-9999.0,South,6.9,-,N/A,,Unknown,190,2013-07-26 03:56:00